sensor_id;sensor_type;location;lat;lon;timestamp;pressure;altitude;pressure_sealevel;temperature;humidity
35519;BME280;21627;48.216;16.482;2024-03-08T00:00:12;100200.84;;;3.76;100.00
35519;BME280;21627;48.216;16.482;2024-03-08T00:02:42;100207.63;;;3.75;100.00
35519;BME280;21627;48.216;16.482;2024-03-08T00:05:09;100208.25;;;3.68;100.00
35519;BME280;21627;48.216;16.482;2024-03-08T00:07:38;100206.31;;;3.62;100.00
35519;BME280;21627;48.216;16.482;2024-03-08T00:10:08;100194.09;;;3.54;100.00
35519;BME280;21627;48.216;16.482;2024-03-08T00:12:43;100201.59;;;3.49;100.00
35519;BME280;21627;48.216;16.482;2024-03-08T00:15:16;100203.94;;;3.43;100.00
35519;BME280;21627;48.216;16.482;2024-03-08T00:17:46;100198.56;;;3.35;100.00
35519;BME280;21627;48.216;16.482;2024-03-08T00:20:16;100199.31;;;3.33;100.00
35519;BME280;21627;48.216;16.482;2024-03-08T00:22:46;100202.75;;;3.33;100.00
35519;BME280;21627;48.216;16.482;2024-03-08T00:25:13;100201.81;;;3.31;100.00
35519;BME280;21627;48.216;16.482;2024-03-08T00:27:41;100201.91;;;3.34;100.00
35519;BME280;21627;48.216;16.482;2024-03-08T00:30:09;100202.84;;;3.36;100.00
35519;BME280;21627;48.216;16.482;2024-03-08T00:32:36;100200.22;;;3.35;100.00
35519;BME280;21627;48.216;16.482;2024-03-08T00:35:04;100191.47;;;3.52;100.00
35519;BME280;21627;48.216;16.482;2024-03-08T00:37:34;100204.84;;;3.45;100.00
35519;BME280;21627;48.216;16.482;2024-03-08T00:40:02;100192.56;;;3.35;100.00
35519;BME280;21627;48.216;16.482;2024-03-08T00:42:29;100200.94;;;3.31;100.00
35519;BME280;21627;48.216;16.482;2024-03-08T00:44:56;100199.94;;;3.27;100.00
35519;BME280;21627;48.216;16.482;2024-03-08T00:47:25;100198.22;;;3.26;100.00
35519;BME280;21627;48.216;16.482;2024-03-08T00:49:52;100193.19;;;3.28;100.00
35519;BME280;21627;48.216;16.482;2024-03-08T00:52:20;100184.50;;;3.24;100.00
35519;BME280;21627;48.216;16.482;2024-03-08T00:54:47;100177.72;;;3.24;100.00
35519;BME280;21627;48.216;16.482;2024-03-08T00:57:14;100190.56;;;3.26;100.00
35519;BME280;21627;48.216;16.482;2024-03-08T00:59:41;100187.91;;;3.23;100.00
35519;BME280;21627;48.216;16.482;2024-03-08T01:02:09;100186.97;;;3.21;100.00
35519;BME280;21627;48.216;16.482;2024-03-08T01:04:37;100183.19;;;3.11;100.00
35519;BME280;21627;48.216;16.482;2024-03-08T01:07:04;100190.38;;;3.21;100.00
35519;BME280;21627;48.216;16.482;2024-03-08T01:09:32;100184.06;;;3.12;100.00
35519;BME280;21627;48.216;16.482;2024-03-08T01:12:18;100176.28;;;3.09;100.00
35519;BME280;21627;48.216;16.482;2024-03-08T01:14:45;100180.44;;;3.05;100.00
35519;BME280;21627;48.216;16.482;2024-03-08T01:17:12;100180.25;;;3.00;100.00
35519;BME280;21627;48.216;16.482;2024-03-08T01:19:40;100179.06;;;2.92;100.00
35519;BME280;21627;48.216;16.482;2024-03-08T01:22:07;100176.75;;;2.98;100.00
35519;BME280;21627;48.216;16.482;2024-03-08T01:24:34;100176.41;;;2.89;100.00
35519;BME280;21627;48.216;16.482;2024-03-08T01:27:01;100165.13;;;2.83;100.00
35519;BME280;21627;48.216;16.482;2024-03-08T01:29:29;100171.88;;;2.82;100.00
35519;BME280;21627;48.216;16.482;2024-03-08T01:31:56;100159.72;;;2.75;100.00
35519;BME280;21627;48.216;16.482;2024-03-08T01:34:23;100169.75;;;2.70;100.00
35519;BME280;21627;48.216;16.482;2024-03-08T01:36:50;100162.97;;;2.71;100.00
35519;BME280;21627;48.216;16.482;2024-03-08T01:39:17;100163.94;;;2.74;100.00
35519;BME280;21627;48.216;16.482;2024-03-08T01:41:45;100157.91;;;2.72;100.00
35519;BME280;21627;48.216;16.482;2024-03-08T01:44:12;100158.44;;;2.64;100.00
35519;BME280;21627;48.216;16.482;2024-03-08T01:46:45;100142.88;;;2.57;100.00
35519;BME280;21627;48.216;16.482;2024-03-08T01:49:12;100147.84;;;2.54;100.00
35519;BME280;21627;48.216;16.482;2024-03-08T01:51:41;100148.00;;;2.57;100.00
35519;BME280;21627;48.216;16.482;2024-03-08T01:54:09;100151.22;;;2.53;100.00
35519;BME280;21627;48.216;16.482;2024-03-08T01:56:38;100153.66;;;2.50;100.00
35519;BME280;21627;48.216;16.482;2024-03-08T01:59:06;100153.47;;;2.46;100.00
35519;BME280;21627;48.216;16.482;2024-03-08T02:01:35;100159.44;;;2.46;100.00
35519;BME280;21627;48.216;16.482;2024-03-08T02:04:02;100157.47;;;2.39;100.00
35519;BME280;21627;48.216;16.482;2024-03-08T02:06:29;100147.53;;;2.45;100.00
35519;BME280;21627;48.216;16.482;2024-03-08T02:08:57;100157.63;;;2.42;100.00
35519;BME280;21627;48.216;16.482;2024-03-08T02:11:24;100151.47;;;2.37;100.00
35519;BME280;21627;48.216;16.482;2024-03-08T02:13:52;100155.75;;;2.38;100.00
35519;BME280;21627;48.216;16.482;2024-03-08T02:16:22;100149.50;;;2.31;100.00
35519;BME280;21627;48.216;16.482;2024-03-08T02:18:49;100143.44;;;2.28;100.00
35519;BME280;21627;48.216;16.482;2024-03-08T02:21:18;100154.63;;;2.31;100.00
35519;BME280;21627;48.216;16.482;2024-03-08T02:23:45;100150.41;;;2.32;100.00
35519;BME280;21627;48.216;16.482;2024-03-08T02:26:13;100154.50;;;2.28;100.00
35519;BME280;21627;48.216;16.482;2024-03-08T02:28:40;100152.63;;;2.24;100.00
35519;BME280;21627;48.216;16.482;2024-03-08T02:31:12;100155.25;;;2.26;100.00
35519;BME280;21627;48.216;16.482;2024-03-08T02:33:39;100150.03;;;2.23;100.00
35519;BME280;21627;48.216;16.482;2024-03-08T02:36:07;100154.28;;;2.22;100.00
35519;BME280;21627;48.216;16.482;2024-03-08T02:38:34;100155.13;;;2.23;100.00
35519;BME280;21627;48.216;16.482;2024-03-08T02:41:02;100144.75;;;2.18;100.00
35519;BME280;21627;48.216;16.482;2024-03-08T02:43:31;100148.28;;;2.22;100.00
35519;BME280;21627;48.216;16.482;2024-03-08T02:45:58;100147.28;;;2.18;100.00
35519;BME280;21627;48.216;16.482;2024-03-08T02:48:25;100146.53;;;2.21;100.00
35519;BME280;21627;48.216;16.482;2024-03-08T02:50:52;100147.59;;;2.26;100.00
35519;BME280;21627;48.216;16.482;2024-03-08T02:53:20;100144.06;;;2.22;100.00
35519;BME280;21627;48.216;16.482;2024-03-08T02:55:47;100144.22;;;2.27;100.00
35519;BME280;21627;48.216;16.482;2024-03-08T02:58:14;100139.44;;;2.34;100.00
35519;BME280;21627;48.216;16.482;2024-03-08T03:00:42;100136.63;;;2.28;100.00
35519;BME280;21627;48.216;16.482;2024-03-08T03:03:12;100144.41;;;2.31;100.00
35519;BME280;21627;48.216;16.482;2024-03-08T03:05:39;100144.28;;;2.28;100.00
35519;BME280;21627;48.216;16.482;2024-03-08T03:08:14;100149.47;;;2.30;100.00
35519;BME280;21627;48.216;16.482;2024-03-08T03:10:45;100137.31;;;2.24;100.00
35519;BME280;21627;48.216;16.482;2024-03-08T03:13:12;100144.41;;;2.31;100.00
35519;BME280;21627;48.216;16.482;2024-03-08T03:15:40;100144.22;;;2.27;100.00
35519;BME280;21627;48.216;16.482;2024-03-08T03:18:09;100148.75;;;2.34;100.00
35519;BME280;21627;48.216;16.482;2024-03-08T03:20:36;100142.59;;;2.29;100.00
35519;BME280;21627;48.216;16.482;2024-03-08T03:23:10;100144.19;;;2.25;100.00
35519;BME280;21627;48.216;16.482;2024-03-08T03:25:42;100140.78;;;2.25;100.00
35519;BME280;21627;48.216;16.482;2024-03-08T03:28:10;100145.97;;;2.28;100.00
35519;BME280;21627;48.216;16.482;2024-03-08T03:30:41;100142.56;;;2.27;100.00
35519;BME280;21627;48.216;16.482;2024-03-08T03:33:08;100135.72;;;2.26;100.00
35519;BME280;21627;48.216;16.482;2024-03-08T03:35:37;100132.66;;;2.35;100.00
35519;BME280;21627;48.216;16.482;2024-03-08T03:38:05;100134.19;;;2.31;100.00
35519;BME280;21627;48.216;16.482;2024-03-08T03:40:39;100132.47;;;2.30;100.00
35519;BME280;21627;48.216;16.482;2024-03-08T03:43:09;100132.22;;;2.24;100.00
35519;BME280;21627;48.216;16.482;2024-03-08T03:45:38;100135.59;;;2.23;100.00
35519;BME280;21627;48.216;16.482;2024-03-08T03:48:07;100134.97;;;2.29;100.00
35519;BME280;21627;48.216;16.482;2024-03-08T03:50:38;100139.25;;;2.30;100.00
35519;BME280;21627;48.216;16.482;2024-03-08T03:53:05;100135.72;;;2.26;100.00
35519;BME280;21627;48.216;16.482;2024-03-08T03:55:37;100138.44;;;2.31;100.00
35519;BME280;21627;48.216;16.482;2024-03-08T03:58:07;100130.50;;;2.23;100.00
35519;BME280;21627;48.216;16.482;2024-03-08T04:00:34;100141.94;;;2.33;100.00
35519;BME280;21627;48.216;16.482;2024-03-08T04:03:01;100137.59;;;2.30;100.00
35519;BME280;21627;48.216;16.482;2024-03-08T04:05:28;100141.81;;;2.30;100.00
35519;BME280;21627;48.216;16.482;2024-03-08T04:07:56;100136.63;;;2.28;100.00
35519;BME280;21627;48.216;16.482;2024-03-08T04:10:23;100124.91;;;2.32;100.00
35519;BME280;21627;48.216;16.482;2024-03-08T04:12:51;100125.19;;;2.40;100.00
35519;BME280;21627;48.216;16.482;2024-03-08T04:15:18;100119.91;;;2.35;100.00
35519;BME280;21627;48.216;16.482;2024-03-08T04:17:45;100130.97;;;2.35;100.00
35519;BME280;21627;48.216;16.482;2024-03-08T04:20:13;100132.66;;;2.35;100.00
35519;BME280;21627;48.216;16.482;2024-03-08T04:22:42;100129.34;;;2.37;100.00
35519;BME280;21627;48.216;16.482;2024-03-08T04:25:11;100115.66;;;2.35;100.00
35519;BME280;21627;48.216;16.482;2024-03-08T04:27:38;100120.69;;;2.34;100.00
35519;BME280;21627;48.216;16.482;2024-03-08T04:30:06;100128.34;;;2.34;100.00
35519;BME280;21627;48.216;16.482;2024-03-08T04:32:37;100114.44;;;2.26;100.00
35519;BME280;21627;48.216;16.482;2024-03-08T04:35:05;100109.59;;;2.32;100.00
35519;BME280;21627;48.216;16.482;2024-03-08T04:37:32;100124.06;;;2.33;100.00
35519;BME280;21627;48.216;16.482;2024-03-08T04:39:59;100125.69;;;2.31;100.00
35519;BME280;21627;48.216;16.482;2024-03-08T04:42:28;100118.84;;;2.30;100.00
35519;BME280;21627;48.216;16.482;2024-03-08T04:44:57;100121.41;;;2.30;100.00
35519;BME280;21627;48.216;16.482;2024-03-08T04:47:25;100112.13;;;2.32;100.00
35519;BME280;21627;48.216;16.482;2024-03-08T04:49:52;100112.94;;;2.31;100.00
35519;BME280;21627;48.216;16.482;2024-03-08T04:52:20;100131.03;;;2.37;100.00
35519;BME280;21627;48.216;16.482;2024-03-08T04:54:49;100127.00;;;2.42;100.00
35519;BME280;21627;48.216;16.482;2024-03-08T04:57:16;100127.75;;;2.40;100.00
35519;BME280;21627;48.216;16.482;2024-03-08T04:59:45;100128.50;;;2.37;100.00
35519;BME280;21627;48.216;16.482;2024-03-08T05:02:12;100125.13;;;2.38;100.00
35519;BME280;21627;48.216;16.482;2024-03-08T05:04:39;100122.84;;;2.46;100.00
35519;BME280;21627;48.216;16.482;2024-03-08T05:07:06;100122.56;;;2.38;100.00
35519;BME280;21627;48.216;16.482;2024-03-08T05:09:34;100126.84;;;2.39;100.00
35519;BME280;21627;48.216;16.482;2024-03-08T05:12:03;100118.16;;;2.34;100.00
35519;BME280;21627;48.216;16.482;2024-03-08T05:14:30;100126.16;;;2.43;100.00
35519;BME280;21627;48.216;16.482;2024-03-08T05:16:58;100119.25;;;2.41;100.00
35519;BME280;21627;48.216;16.482;2024-03-08T05:19:25;100112.25;;;2.35;100.00
35519;BME280;21627;48.216;16.482;2024-03-08T05:21:52;100126.81;;;2.37;100.00
35519;BME280;21627;48.216;16.482;2024-03-08T05:24:19;100122.50;;;2.36;100.00
35519;BME280;21627;48.216;16.482;2024-03-08T05:26:47;100130.09;;;2.35;100.00
35519;BME280;21627;48.216;16.482;2024-03-08T05:29:15;100128.50;;;2.37;100.00
35519;BME280;21627;48.216;16.482;2024-03-08T05:31:47;100111.13;;;2.28;100.00
35519;BME280;21627;48.216;16.482;2024-03-08T05:34:18;100126.06;;;2.40;100.00
35519;BME280;21627;48.216;16.482;2024-03-08T05:36:49;100125.13;;;2.38;100.00
35519;BME280;21627;48.216;16.482;2024-03-08T05:39:18;100124.94;;;2.33;100.00
35519;BME280;21627;48.216;16.482;2024-03-08T05:41:46;100129.28;;;2.36;100.00
35519;BME280;21627;48.216;16.482;2024-03-08T05:44:14;100119.03;;;2.34;100.00
35519;BME280;21627;48.216;16.482;2024-03-08T05:46:41;100133.81;;;2.43;100.00
35519;BME280;21627;48.216;16.482;2024-03-08T05:49:08;100127.66;;;2.38;100.00
35519;BME280;21627;48.216;16.482;2024-03-08T05:51:39;100132.03;;;2.41;100.00
35519;BME280;21627;48.216;16.482;2024-03-08T05:54:10;100134.69;;;2.44;100.00
35519;BME280;21627;48.216;16.482;2024-03-08T05:56:39;100128.78;;;2.45;100.00
35519;BME280;21627;48.216;16.482;2024-03-08T05:59:12;100134.75;;;2.45;100.00
35519;BME280;21627;48.216;16.482;2024-03-08T06:01:40;100139.03;;;2.46;100.00
35519;BME280;21627;48.216;16.482;2024-03-08T06:04:09;100137.41;;;2.48;100.00
35519;BME280;21627;48.216;16.482;2024-03-08T06:06:39;100128.91;;;2.48;100.00
35519;BME280;21627;48.216;16.482;2024-03-08T06:09:07;100133.38;;;2.53;100.00
35519;BME280;21627;48.216;16.482;2024-03-08T06:11:39;100137.78;;;2.57;100.00
35519;BME280;21627;48.216;16.482;2024-03-08T06:14:06;100139.41;;;2.55;100.00
35519;BME280;21627;48.216;16.482;2024-03-08T06:16:33;100141.31;;;2.61;100.00
35519;BME280;21627;48.216;16.482;2024-03-08T06:19:03;100137.91;;;2.60;100.00
35519;BME280;21627;48.216;16.482;2024-03-08T06:21:30;100143.22;;;2.67;100.00
35519;BME280;21627;48.216;16.482;2024-03-08T06:23:58;100143.28;;;2.68;100.00
35519;BME280;21627;48.216;16.482;2024-03-08T06:26:25;100143.69;;;2.79;100.00
35519;BME280;21627;48.216;16.482;2024-03-08T06:28:57;100138.13;;;2.67;100.00
35519;BME280;21627;48.216;16.482;2024-03-08T06:31:25;100150.31;;;2.74;100.00
35519;BME280;21627;48.216;16.482;2024-03-08T06:33:52;100146.78;;;2.70;100.00
35519;BME280;21627;48.216;16.482;2024-03-08T06:36:23;100145.38;;;2.78;100.00
35519;BME280;21627;48.216;16.482;2024-03-08T06:38:51;100148.13;;;2.85;100.00
35519;BME280;21627;48.216;16.482;2024-03-08T06:41:18;100142.81;;;2.78;100.00
35519;BME280;21627;48.216;16.482;2024-03-08T06:43:47;100151.44;;;2.82;100.00
35519;BME280;21627;48.216;16.482;2024-03-08T06:46:16;100144.78;;;2.86;100.00
35519;BME280;21627;48.216;16.482;2024-03-08T06:48:43;100144.06;;;2.90;100.00
35519;BME280;21627;48.216;16.482;2024-03-08T06:51:13;100150.25;;;2.95;100.00
35519;BME280;21627;48.216;16.482;2024-03-08T06:53:41;100154.75;;;3.02;100.00
35519;BME280;21627;48.216;16.482;2024-03-08T06:56:08;100144.78;;;3.08;100.00
35519;BME280;21627;48.216;16.482;2024-03-08T06:58:35;100137.97;;;3.09;100.00
35519;BME280;21627;48.216;16.482;2024-03-08T07:01:03;100146.50;;;3.09;100.00
35519;BME280;21627;48.216;16.482;2024-03-08T07:03:34;100137.28;;;3.13;100.00
35519;BME280;21627;48.216;16.482;2024-03-08T07:06:01;100146.72;;;3.15;100.00
35519;BME280;21627;48.216;16.482;2024-03-08T07:08:30;100145.41;;;3.27;100.00
35519;BME280;21627;48.216;16.482;2024-03-08T07:10:57;100154.72;;;3.24;100.00
35519;BME280;21627;48.216;16.482;2024-03-08T07:13:26;100155.81;;;3.31;100.00
35519;BME280;21627;48.216;16.482;2024-03-08T07:15:56;100151.56;;;3.32;100.00
35519;BME280;21627;48.216;16.482;2024-03-08T07:18:27;100147.59;;;3.40;100.00
35519;BME280;21627;48.216;16.482;2024-03-08T07:20:55;100145.59;;;3.31;100.00
35519;BME280;21627;48.216;16.482;2024-03-08T07:23:22;100144.63;;;3.28;100.00
35519;BME280;21627;48.216;16.482;2024-03-08T07:26:08;100149.06;;;3.33;100.00
35519;BME280;21627;48.216;16.482;2024-03-08T07:28:35;100143.19;;;3.36;100.00
35519;BME280;21627;48.216;16.482;2024-03-08T07:31:02;100143.66;;;3.50;100.00
35519;BME280;21627;48.216;16.482;2024-03-08T07:33:44;100134.97;;;3.44;100.00
35519;BME280;21627;48.216;16.482;2024-03-08T07:36:11;100143.00;;;3.55;100.00
35519;BME280;21627;48.216;16.482;2024-03-08T07:38:39;100151.50;;;3.54;100.00
35519;BME280;21627;48.216;16.482;2024-03-08T07:41:06;100151.56;;;3.56;100.00
35519;BME280;21627;48.216;16.482;2024-03-08T07:43:33;100154.97;;;3.56;100.00
35519;BME280;21627;48.216;16.482;2024-03-08T07:46:00;100153.28;;;3.57;100.00
35519;BME280;21627;48.216;16.482;2024-03-08T07:48:27;100149.97;;;3.59;100.00
35519;BME280;21627;48.216;16.482;2024-03-08T07:50:55;100158.41;;;3.57;100.00
35519;BME280;21627;48.216;16.482;2024-03-08T07:53:22;100156.69;;;3.56;100.00
35519;BME280;21627;48.216;16.482;2024-03-08T07:55:52;100146.72;;;3.63;100.00
35519;BME280;21627;48.216;16.482;2024-03-08T07:58:19;100155.91;;;3.58;100.00
35519;BME280;21627;48.216;16.482;2024-03-08T08:00:47;100153.19;;;3.54;100.00
35519;BME280;21627;48.216;16.482;2024-03-08T08:03:14;100159.41;;;3.60;100.00
35519;BME280;21627;48.216;16.482;2024-03-08T08:05:41;100165.22;;;3.56;100.00
35519;BME280;21627;48.216;16.482;2024-03-08T08:08:09;100164.44;;;3.59;100.00
35519;BME280;21627;48.216;16.482;2024-03-08T08:10:38;100163.63;;;3.60;100.00
35519;BME280;21627;48.216;16.482;2024-03-08T08:13:05;100152.78;;;3.67;100.00
35519;BME280;21627;48.216;16.482;2024-03-08T08:15:32;100157.97;;;3.68;100.00
35519;BME280;21627;48.216;16.482;2024-03-08T08:18:02;100152.63;;;3.62;100.00
35519;BME280;21627;48.216;16.482;2024-03-08T08:20:33;100160.28;;;3.62;100.00
35519;BME280;21627;48.216;16.482;2024-03-08T08:23:00;100153.72;;;3.69;100.00
35519;BME280;21627;48.216;16.482;2024-03-08T08:25:27;100149.31;;;3.65;100.00
35519;BME280;21627;48.216;16.482;2024-03-08T08:27:54;100157.09;;;3.68;100.00
35519;BME280;21627;48.216;16.482;2024-03-08T08:30:22;100156.38;;;3.72;100.00
35519;BME280;21627;48.216;16.482;2024-03-08T08:32:49;100154.03;;;3.78;100.00
35519;BME280;21627;48.216;16.482;2024-03-08T08:35:17;100160.78;;;3.76;100.00
35519;BME280;21627;48.216;16.482;2024-03-08T08:37:46;100155.41;;;3.68;100.00
35519;BME280;21627;48.216;16.482;2024-03-08T08:40:14;100157.28;;;3.74;100.00
35519;BME280;21627;48.216;16.482;2024-03-08T08:42:42;100162.50;;;3.77;100.00
35519;BME280;21627;48.216;16.482;2024-03-08T08:45:10;100166.19;;;3.85;100.00
35519;BME280;21627;48.216;16.482;2024-03-08T08:47:46;100165.66;;;3.70;100.00
35519;BME280;21627;48.216;16.482;2024-03-08T08:50:14;100165.13;;;3.79;100.00
35519;BME280;21627;48.216;16.482;2024-03-08T08:52:41;100157.63;;;3.83;100.00
35519;BME280;21627;48.216;16.482;2024-03-08T08:55:11;100157.88;;;3.65;100.00
35519;BME280;21627;48.216;16.482;2024-03-08T08:57:42;100163.78;;;3.64;100.00
35519;BME280;21627;48.216;16.482;2024-03-08T09:00:10;100154.03;;;3.78;100.00
35519;BME280;21627;48.216;16.482;2024-03-08T09:02:42;100162.34;;;3.73;100.00
35519;BME280;21627;48.216;16.482;2024-03-08T09:05:09;100157.19;;;3.71;100.00
35519;BME280;21627;48.216;16.482;2024-03-08T09:07:37;100153.72;;;3.69;100.00
35519;BME280;21627;48.216;16.482;2024-03-08T09:10:04;100158.16;;;3.75;100.00
35519;BME280;21627;48.216;16.482;2024-03-08T09:12:35;100148.09;;;3.79;100.00
35519;BME280;21627;48.216;16.482;2024-03-08T09:15:02;100158.41;;;3.82;100.00
35519;BME280;21627;48.216;16.482;2024-03-08T09:17:29;100148.28;;;3.85;100.00
35519;BME280;21627;48.216;16.482;2024-03-08T09:19:57;100155.09;;;3.85;100.00
35519;BME280;21627;48.216;16.482;2024-03-08T09:22:24;100145.34;;;4.00;100.00
35519;BME280;21627;48.216;16.482;2024-03-08T09:24:52;100151.50;;;4.05;100.00
35519;BME280;21627;48.216;16.482;2024-03-08T09:27:19;100144.59;;;4.03;100.00
35519;BME280;21627;48.216;16.482;2024-03-08T09:29:46;100143.72;;;4.02;100.00
35519;BME280;21627;48.216;16.482;2024-03-08T09:32:13;100141.38;;;4.08;100.00
35519;BME280;21627;48.216;16.482;2024-03-08T09:34:40;100153.34;;;4.09;100.00
35519;BME280;21627;48.216;16.482;2024-03-08T09:37:08;100148.13;;;4.06;100.00
35519;BME280;21627;48.216;16.482;2024-03-08T09:39:36;100144.03;;;4.11;100.00
35519;BME280;21627;48.216;16.482;2024-03-08T09:42:04;100142.53;;;4.18;100.00
35519;BME280;21627;48.216;16.482;2024-03-08T09:44:32;100133.22;;;4.20;100.00
35519;BME280;21627;48.216;16.482;2024-03-08T09:47:00;100130.25;;;4.33;100.00
35519;BME280;21627;48.216;16.482;2024-03-08T09:49:29;100135.94;;;4.53;100.00
35519;BME280;21627;48.216;16.482;2024-03-08T09:51:57;100128.22;;;4.52;100.00
35519;BME280;21627;48.216;16.482;2024-03-08T09:54:25;100134.75;;;4.71;100.00
35519;BME280;21627;48.216;16.482;2024-03-08T09:56:53;100137.09;;;4.63;100.00
35519;BME280;21627;48.216;16.482;2024-03-08T09:59:20;100140.78;;;4.71;100.00
35519;BME280;21627;48.216;16.482;2024-03-08T10:01:54;100131.69;;;4.83;100.00
35519;BME280;21627;48.216;16.482;2024-03-08T10:04:26;100136.66;;;5.07;100.00
35519;BME280;21627;48.216;16.482;2024-03-08T10:06:57;100127.50;;;5.15;100.00
35519;BME280;21627;48.216;16.482;2024-03-08T10:09:25;100129.34;;;5.20;100.00
35519;BME280;21627;48.216;16.482;2024-03-08T10:11:56;100128.84;;;5.02;100.00
35519;BME280;21627;48.216;16.482;2024-03-08T10:14:25;100124.88;;;5.13;100.00
35519;BME280;21627;48.216;16.482;2024-03-08T10:16:55;100129.34;;;5.20;100.00
35519;BME280;21627;48.216;16.482;2024-03-08T10:19:30;100131.63;;;5.10;100.00
35519;BME280;21627;48.216;16.482;2024-03-08T10:21:57;100129.19;;;5.14;100.00
35519;BME280;21627;48.216;16.482;2024-03-08T10:24:26;100128.00;;;5.03;100.00
35519;BME280;21627;48.216;16.482;2024-03-08T10:26:59;100133.47;;;5.15;100.00
35519;BME280;21627;48.216;16.482;2024-03-08T10:29:27;100126.00;;;5.23;100.00
35519;BME280;21627;48.216;16.482;2024-03-08T10:31:55;100128.78;;;5.31;100.00
35519;BME280;21627;48.216;16.482;2024-03-08T10:34:23;100128.63;;;5.25;100.00
35519;BME280;21627;48.216;16.482;2024-03-08T10:36:51;100115.28;;;5.06;100.00
35519;BME280;21627;48.216;16.482;2024-03-08T10:39:25;100124.34;;;5.25;100.00
35519;BME280;21627;48.216;16.482;2024-03-08T10:42:04;100123.69;;;5.32;100.00
35519;BME280;21627;48.216;16.482;2024-03-08T10:44:42;100120.38;;;5.36;100.00
35519;BME280;21627;48.216;16.482;2024-03-08T10:47:22;100123.25;;;5.47;100.00
35519;BME280;21627;48.216;16.482;2024-03-08T10:50:14;100112.41;;;5.59;100.00
35519;BME280;21627;48.216;16.482;2024-03-08T10:52:51;100117.66;;;5.63;100.00
35519;BME280;21627;48.216;16.482;2024-03-08T10:55:19;100118.59;;;5.66;100.00
35519;BME280;21627;48.216;16.482;2024-03-08T10:57:50;100115.47;;;5.77;100.00
35519;BME280;21627;48.216;16.482;2024-03-08T11:00:18;100109.31;;;5.71;100.00
35519;BME280;21627;48.216;16.482;2024-03-08T11:02:54;100111.88;;;5.71;100.00
35519;BME280;21627;48.216;16.482;2024-03-08T11:05:41;100105.91;;;5.72;100.00
35519;BME280;21627;48.216;16.482;2024-03-08T11:08:18;100107.91;;;5.83;100.00
35519;BME280;21627;48.216;16.482;2024-03-08T11:10:52;100107.41;;;5.97;100.00
35519;BME280;21627;48.216;16.482;2024-03-08T11:13:40;100100.28;;;5.86;100.00
35519;BME280;21627;48.216;16.482;2024-03-08T11:18:54;100085.50;;;5.76;100.00
35519;BME280;21627;48.216;16.482;2024-03-08T11:21:24;100094.06;;;5.77;100.00
35519;BME280;21627;48.216;16.482;2024-03-08T11:24:06;100092.53;;;5.83;100.00
35519;BME280;21627;48.216;16.482;2024-03-08T11:26:34;100087.25;;;5.79;100.00
35519;BME280;21627;48.216;16.482;2024-03-08T11:32:11;100087.78;;;5.99;100.00
35519;BME280;21627;48.216;16.482;2024-03-08T11:34:48;100080.94;;;5.99;100.00
35519;BME280;21627;48.216;16.482;2024-03-08T11:37:20;100090.47;;;6.03;100.00
35519;BME280;21627;48.216;16.482;2024-03-08T11:39:52;100077.56;;;6.00;100.00
35519;BME280;21627;48.216;16.482;2024-03-08T11:42:22;100066.53;;;6.04;100.00
35519;BME280;21627;48.216;16.482;2024-03-08T11:44:51;100075.13;;;6.05;100.00
35519;BME280;21627;48.216;16.482;2024-03-08T11:47:20;100068.13;;;5.99;100.00
35519;BME280;21627;48.216;16.482;2024-03-08T11:49:47;100070.84;;;6.05;100.00
35519;BME280;21627;48.216;16.482;2024-03-08T11:52:17;100075.28;;;6.13;100.00
35519;BME280;21627;48.216;16.482;2024-03-08T11:54:53;100064.22;;;6.15;100.00
35519;BME280;21627;48.216;16.482;2024-03-08T11:57:24;100074.66;;;6.23;100.00
35519;BME280;21627;48.216;16.482;2024-03-08T11:59:53;100067.03;;;6.26;100.00
35519;BME280;21627;48.216;16.482;2024-03-08T12:02:27;100066.13;;;6.24;100.00
35519;BME280;21627;48.216;16.482;2024-03-08T12:04:59;100053.22;;;6.21;100.00
35519;BME280;21627;48.216;16.482;2024-03-08T12:07:27;100061.94;;;6.27;100.00
35519;BME280;21627;48.216;16.482;2024-03-08T12:10:18;100052.59;;;6.31;100.00
35519;BME280;21627;48.216;16.482;2024-03-08T12:12:51;100039.88;;;6.37;100.00
35519;BME280;21627;48.216;16.482;2024-03-08T12:15:23;100045.94;;;6.41;100.00
35519;BME280;21627;48.216;16.482;2024-03-08T12:17:53;100040.91;;;6.45;100.00
35519;BME280;21627;48.216;16.482;2024-03-08T12:20:27;100046.94;;;6.47;100.00
35519;BME280;21627;48.216;16.482;2024-03-08T12:22:59;100042.63;;;6.46;100.00
35519;BME280;21627;48.216;16.482;2024-03-08T12:25:34;100035.00;;;6.49;100.00
35519;BME280;21627;48.216;16.482;2024-03-08T12:28:12;100047.97;;;6.56;100.00
35519;BME280;21627;48.216;16.482;2024-03-08T12:30:49;100037.72;;;6.57;100.00
35519;BME280;21627;48.216;16.482;2024-03-08T12:33:20;100041.50;;;6.73;100.00
35519;BME280;21627;48.216;16.482;2024-03-08T12:35:52;100044.13;;;6.76;100.00
35519;BME280;21627;48.216;16.482;2024-03-08T12:38:24;100042.19;;;6.66;100.00
35519;BME280;21627;48.216;16.482;2024-03-08T12:41:01;100038.84;;;6.70;100.00
35519;BME280;21627;48.216;16.482;2024-03-08T12:43:29;100030.22;;;6.66;100.00
35519;BME280;21627;48.216;16.482;2024-03-08T12:46:01;100037.25;;;6.77;100.00
35519;BME280;21627;48.216;16.482;2024-03-08T12:48:28;100039.78;;;6.75;100.00
35519;BME280;21627;48.216;16.482;2024-03-08T12:51:00;100035.59;;;6.80;100.00
35519;BME280;21627;48.216;16.482;2024-03-08T12:53:28;100036.50;;;6.81;100.00
35519;BME280;21627;48.216;16.482;2024-03-08T12:55:56;100022.72;;;6.77;100.00